• Join FlightAware (Why Join?)
  • Login
  • US Flag 
11:44PM EDT


 

Airport Tracker/Info


-or-


 

Live Flight TrackerFlight Track Log ✈ DLH1110 ✈ 15-May-2012 ✈ EDDF / FRA - LEMD / MAD

Flight Track Log - Related Links

Times and Time Zones

All times are in EDT time to prevent confusion due to time zone crossing. See the DLH1110 flight status page for this flight to view local times or setup timezone preferences in your user account.

Time Position Orientation Groundspeed Altitude Reporting Facility
EDT Latitude Longitude Course Direction KTS MPH feet Rate Location/Type
12:47AM 49.0963 7.0734 225° Southwest  Level Estimated
12:48AM 49.0213 6.9586 225° Southwest  Level Estimated
12:49AM 48.9462 6.8440 225° Southwest  Level Estimated
12:50AM 48.8709 6.7299 225° Southwest  Level Estimated
12:51AM 48.7956 6.6160 225° Southwest  Level Estimated
12:52AM 48.7201 6.5025 225° Southwest  Level Estimated
12:53AM 48.6446 6.3894 225° Southwest  Level Estimated
12:54AM 48.5689 6.2765 225° Southwest  Level Estimated
12:55AM 48.4931 6.1641 224° Southwest  Level Estimated
12:56AM 48.4172 6.0519 224° Southwest  Level Estimated
12:57AM 48.3412 5.9401 224° Southwest  Level Estimated
12:58AM 48.2651 5.8286 224° Southwest  Level Estimated
12:59AM 48.1888 5.7175 224° Southwest  Level Estimated
01:00AM 48.1125 5.6066 224° Southwest  Level Estimated
01:01AM 48.0361 5.4962 224° Southwest  Level Estimated
01:02AM 47.9595 5.3860 224° Southwest  Level Estimated
01:03AM 47.8829 5.2762 224° Southwest  Level Estimated
01:04AM 47.8061 5.1667 224° Southwest  Level Estimated
01:05AM 47.7293 5.0575 224° Southwest  Level Estimated
01:06AM 47.6524 4.9486 224° Southwest  Level Estimated
01:07AM 47.5753 4.8401 223° Southwest  Level Estimated
01:08AM 47.4981 4.7319 223° Southwest  Level Estimated
01:09AM 47.4209 4.6239 223° Southwest  Level Estimated
01:10AM 47.3435 4.5163 223° Southwest  Level Estimated
01:11AM 47.2660 4.4091 223° Southwest  Level Estimated
01:12AM 47.1885 4.3021 223° Southwest  Level Estimated
01:13AM 47.1108 4.1955 223° Southwest  Level Estimated
01:14AM 47.0331 4.0891 223° Southwest  Level Estimated
01:15AM 46.9552 3.9831 223° Southwest  Level Estimated
01:16AM 46.8773 3.8774 223° Southwest  Level Estimated
01:17AM 46.7992 3.7720 223° Southwest  Level Estimated
01:18AM 46.7211 3.6669 223° Southwest  Level Estimated
01:19AM 46.6428 3.5621 223° Southwest  Level Estimated
01:20AM 46.5645 3.4576 222° Southwest  Level Estimated
01:21AM 46.4860 3.3534 222° Southwest  Level Estimated
01:22AM 46.4075 3.2495 222° Southwest  Level Estimated
01:23AM 46.3289 3.1459 222° Southwest  Level Estimated
01:24AM 46.2501 3.0426 222° Southwest  Level Estimated
01:25AM 46.1713 2.9396 222° Southwest  Level Estimated
01:26AM 46.0924 2.8368 222° Southwest  Level Estimated
01:27AM 46.0134 2.7344 222° Southwest  Level Estimated
01:28AM 45.9343 2.6323 222° Southwest  Level Estimated
01:29AM 45.8552 2.5305 222° Southwest  Level Estimated
01:30AM 45.7759 2.4289 222° Southwest  Level Estimated
01:31AM 45.6965 2.3277 222° Southwest  Level Estimated
01:32AM 45.6171 2.2267 222° Southwest  Level Estimated
01:33AM 45.5376 2.1260 222° Southwest  Level Estimated
01:34AM 45.4580 2.0256 221° Southwest  Level Estimated
01:35AM 45.3782 1.9255 221° Southwest  Level Estimated
01:36AM 45.2984 1.8257 221° Southwest  Level Estimated
01:37AM 45.2186 1.7262 221° Southwest  Level Estimated
01:38AM 45.1386 1.6269 221° Southwest  Level Estimated
01:39AM 45.0585 1.5279 221° Southwest  Level Estimated
01:40AM 44.9784 1.4292 221° Southwest  Level Estimated
01:41AM 44.8982 1.3307 221° Southwest  Level Estimated
01:42AM 44.8178 1.2326 221° Southwest  Level Estimated
01:43AM 44.7374 1.1347 221° Southwest  Level Estimated
01:44AM 44.6570 1.0371 221° Southwest  Level Estimated
01:45AM 44.5764 0.9397 221° Southwest  Level Estimated
01:46AM 44.4958 0.8426 221° Southwest  Level Estimated
01:47AM 44.4150 0.7458 221° Southwest  Level Estimated
01:48AM 44.3342 0.6493 220° Southwest  Level Estimated
01:49AM 44.2533 0.5530 220° Southwest  Level Estimated
01:50AM 44.1724 0.4570 220° Southwest  Level Estimated
01:51AM 44.0913 0.3612 220° Southwest  Level Estimated
01:52AM 44.0102 0.2657 220° Southwest  Level Estimated
01:53AM 43.9290 0.1705 220° Southwest  Level Estimated
01:54AM 43.8477 0.0755 220° Southwest  Level Estimated
01:55AM 43.7663 -0.0192 220° Southwest  Level Estimated
01:56AM 43.6849 -0.1136 220° Southwest  Level Estimated
01:57AM 43.6034 -0.2078 220° Southwest  Level Estimated
01:58AM 43.5218 -0.3018 220° Southwest  Level Estimated
01:59AM 43.4401 -0.3955 220° Southwest  Level Estimated
02:00AM 43.3583 -0.4889 220° Southwest  Level Estimated
02:01AM 43.2765 -0.5821 220° Southwest  Level Estimated
02:02AM 43.1946 -0.6750 220° Southwest  Level Estimated
02:03AM 43.1126 -0.7677 219° Southwest  Level Estimated
02:04AM 43.0306 -0.8601 219° Southwest  Level Estimated
02:05AM 42.9485 -0.9523 219° Southwest  Level Estimated
02:06AM 42.8663 -1.0443 219° Southwest  Level Estimated
02:07AM 42.7840 -1.1360 219° Southwest  Level Estimated
02:08AM 42.7016 -1.2274 219° Southwest  Level Estimated
02:09AM 42.6192 -1.3186 219° Southwest  Level Estimated
02:10AM 42.5367 -1.4096 219° Southwest  Level Estimated
02:11AM 42.4542 -1.5003 219° Southwest  Level Estimated
02:12AM 42.3715 -1.5908 219° Southwest  Level Estimated
02:13AM 42.2888 -1.6811 219° Southwest  Level Estimated
02:14AM 42.2061 -1.7711 219° Southwest  Level Estimated
02:15AM 42.1232 -1.8609 219° Southwest  Level Estimated
02:16AM 42.0403 -1.9504 219° Southwest  Level Estimated
02:17AM 41.9573 -2.0397 219° Southwest  Level Estimated
02:18AM 41.8743 -2.1288 219° Southwest  Level Estimated
02:19AM 41.7911 -2.2177 219° Southwest  Level Estimated
02:20AM 41.7080 -2.3063 218° Southwest  Level Estimated
02:21AM 41.6247 -2.3947 218° Southwest  Level Estimated
02:22AM 41.5414 -2.4828 218° Southwest  Level Estimated
02:23AM 41.4580 -2.5708 218° Southwest  Level Estimated
02:24AM 41.3745 -2.6585 218° Southwest  Level Estimated
02:25AM 41.2910 -2.7460 218° Southwest  Level Estimated
02:26AM 41.2074 -2.8332 218° Southwest  Level Estimated
02:27AM 41.1237 -2.9203 218° Southwest  Level Estimated
02:28AM 41.0400 -3.0071 218° Southwest  Level Estimated
02:29AM 40.9562 -3.0937 218° Southwest  Level Estimated
02:30AM 40.8724 -3.1801 218° Southwest  Level Estimated
02:31AM 40.7885 -3.2662 218° Southwest  Level Estimated
02:32AM 40.7045 -3.3522 218° Southwest  Level Estimated
02:33AM 40.6204 -3.4379 218° Southwest  Level Estimated
02:34AM 40.5363 -3.5234 218° Southwest  Level Estimated
02:35AM 40.4521 -3.6087 38° Northeast  Level Estimated
02:36AM 40.5363 -3.5234 218° Southwest  Level Estimated
02:37AM 40.4521 -3.6087 38° Northeast  Level Estimated
02:38AM 40.5363 -3.5234 218° Southwest  Level Estimated
02:39AM 40.4521 -3.6087 38° Northeast  Level Estimated
02:40AM 40.5363 -3.5234 218° Southwest  Level Estimated
02:41AM 40.4521 -3.6087 38° Northeast  Level Estimated
02:42AM 40.5363 -3.5234 218° Southwest  Level Estimated
02:43AM 40.4521 -3.6087 38° Northeast  Level Estimated
02:44AM 40.5363 -3.5234 218° Southwest  Level Estimated
02:45AM 40.4521 -3.6087 38° Northeast  Level Estimated
02:46AM 40.5363 -3.5234 218° Southwest  Level Estimated
02:47AM 40.4521 -3.6087 38° Northeast  Level Estimated
02:48AM 40.5363 -3.5234 218° Southwest  Level Estimated
02:49AM 40.4521 -3.6087 38° Northeast  Level Estimated
02:50AM 40.5363 -3.5234 38° Northeast  Level Estimated